Time;durP1;ratioP1;P1;durP2;ratioP2;P2;SDS_P1;SDS_P2;PMS_P1;PMS_P2;Temp;Humidity;BMP_temperature;BMP_pressure;BME280_temperature;BME280_humidity;BME280_pressure;Samples;Min_cycle;Max_cycle;Signal;HPM_P1;HPM_P2
2021/09/21 00:00:47;;;;;;;5.28;4.18;;;14.80;99.90;;;;;;2068625;28;20512;-71
2021/09/21 00:01:48;;;;;;;5.25;4.07;;;14.90;99.90;;;;;;2072095;28;20045;-71
2021/09/21 00:02:48;;;;;;;7.10;4.22;;;14.80;99.90;;;;;;2068274;28;20548;-71
2021/09/21 00:03:49;;;;;;;5.45;4.07;;;14.80;99.90;;;;;;2071944;28;20035;-71
2021/09/21 00:04:49;;;;;;;6.82;4.35;;;14.80;99.90;;;;;;2064836;28;20109;-71
2021/09/21 00:05:50;;;;;;;6.22;4.40;;;14.80;99.90;;;;;;2064016;28;20031;-71
2021/09/21 00:06:50;;;;;;;5.65;4.60;;;14.80;99.90;;;;;;2064194;28;20072;-71
2021/09/21 00:07:51;;;;;;;6.78;4.55;;;14.80;99.90;;;;;;2063716;28;20497;-71
2021/09/21 00:08:51;;;;;;;4.65;3.88;;;14.70;99.90;;;;;;2063491;28;20506;-71
2021/09/21 00:09:52;;;;;;;4.57;4.15;;;14.70;99.90;;;;;;2064113;28;20034;-70
2021/09/21 00:10:53;;;;;;;5.15;4.25;;;14.70;99.90;;;;;;2063276;28;20039;-70
2021/09/21 00:11:54;;;;;;;6.65;4.22;;;14.70;99.90;;;;;;2063217;28;20022;-70
2021/09/21 00:12:55;;;;;;;6.35;4.45;;;14.70;99.90;;;;;;2063583;28;20022;-70
2021/09/21 00:13:57;;;;;;;5.07;4.40;;;14.70;99.90;;;;;;2071397;28;20026;-70
2021/09/21 00:14:57;;;;;;;7.68;4.07;;;14.70;99.90;;;;;;2071701;28;20022;-70
2021/09/21 00:15:58;;;;;;;8.13;4.30;;;14.70;99.90;;;;;;2066878;28;20153;-70
2021/09/21 00:17:02;;;;;;;7.93;4.03;;;14.70;99.90;;;;;;2064425;28;20026;-70
2021/09/21 00:18:02;;;;;;;6.10;4.57;;;14.70;99.90;;;;;;2072480;28;20032;-70
2021/09/21 00:19:03;;;;;;;4.65;4.10;;;14.70;99.90;;;;;;2067504;28;20471;-70
2021/09/21 00:20:05;;;;;;;6.47;4.15;;;14.70;99.90;;;;;;2064033;28;20077;-70
2021/09/21 00:21:06;;;;;;;10.43;4.20;;;14.70;99.90;;;;;;2063546;28;20079;-70
2021/09/21 00:22:06;;;;;;;5.97;4.03;;;14.60;99.90;;;;;;2063796;28;20084;-70
2021/09/21 00:23:07;;;;;;;6.85;4.30;;;14.60;99.90;;;;;;2063796;28;20033;-70
2021/09/21 00:24:08;;;;;;;5.20;4.28;;;14.60;99.90;;;;;;2063612;28;20023;-70
2021/09/21 00:25:10;;;;;;;6.93;4.88;;;14.60;99.90;;;;;;2063996;28;20026;-70
2021/09/21 00:26:11;;;;;;;6.32;4.65;;;14.60;99.90;;;;;;2064273;28;20023;-70
2021/09/21 00:27:11;;;;;;;7.80;4.43;;;14.60;99.90;;;;;;2065676;28;20057;-70
2021/09/21 00:28:12;;;;;;;6.65;4.20;;;14.60;99.90;;;;;;2071407;28;20054;-70
2021/09/21 00:29:13;;;;;;;4.80;4.25;;;14.60;99.90;;;;;;2071784;28;20014;-70
2021/09/21 00:30:16;;;;;;;5.50;4.20;;;14.60;99.90;;;;;;2072086;28;20096;-70
2021/09/21 00:31:18;;;;;;;6.15;4.78;;;14.60;99.90;;;;;;2071692;28;20308;-70
2021/09/21 00:32:24;;;;;;;5.97;4.38;;;14.60;99.90;;;;;;2071571;28;20014;-70
2021/09/21 00:33:25;;;;;;;4.97;4.30;;;14.60;99.90;;;;;;2071825;28;20068;-70
2021/09/21 00:34:38;;;;;;;5.05;4.55;;;14.50;99.90;;;;;;2072058;28;20025;-70
2021/09/21 00:35:39;;;;;;;5.25;4.18;;;14.50;99.90;;;;;;2065231;28;20069;-70
2021/09/21 00:36:41;;;;;;;5.55;4.40;;;14.50;99.90;;;;;;2063838;28;20069;-70
2021/09/21 00:37:42;;;;;;;5.97;4.53;;;14.50;99.90;;;;;;2063572;28;20054;-70
2021/09/21 00:38:43;;;;;;;6.57;4.65;;;14.50;99.90;;;;;;2063402;28;20022;-70
2021/09/21 00:39:45;;;;;;;6.80;4.60;;;14.40;99.90;;;;;;2064159;28;20042;-70
2021/09/21 00:40:46;;;;;;;6.40;4.65;;;14.50;99.90;;;;;;2071815;28;20466;-70
2021/09/21 00:41:49;;;;;;;6.68;4.00;;;14.40;99.90;;;;;;2070913;28;20069;-70
2021/09/21 00:42:50;;;;;;;5.25;4.47;;;14.40;99.90;;;;;;2071577;28;20029;-70
2021/09/21 00:43:51;;;;;;;5.53;4.47;;;14.40;99.90;;;;;;2071246;28;20033;-70
2021/09/21 00:45:01;;;;;;;6.90;3.90;;;14.40;99.90;;;;;;2069363;28;20034;-70
2021/09/21 00:46:02;;;;;;;;;;;14.40;99.90;;;;;;2064192;28;20475;-70
2021/09/21 00:47:04;;;;;;;5.28;4.45;;;14.30;99.90;;;;;;2063787;28;20270;-70
2021/09/21 00:48:05;;;;;;;5.60;4.43;;;14.30;99.90;;;;;;2063528;28;20474;-70
2021/09/21 00:49:05;;;;;;;6.80;4.43;;;14.30;99.90;;;;;;2063667;28;20475;-70
2021/09/21 00:50:06;;;;;;;6.20;4.78;;;14.40;99.90;;;;;;2063775;28;20390;-70
2021/09/21 00:51:08;;;;;;;4.95;4.18;;;14.30;99.90;;;;;;2063563;28;20029;-70
2021/09/21 00:52:09;;;;;;;5.30;4.72;;;14.30;99.90;;;;;;2063621;28;20022;-70
2021/09/21 00:53:09;;;;;;;4.72;4.22;;;14.30;99.90;;;;;;2063322;28;20041;-70
2021/09/21 00:54:10;;;;;;;6.20;4.70;;;14.30;99.90;;;;;;2063670;28;20019;-70
2021/09/21 00:55:12;;;;;;;6.95;4.35;;;14.30;99.90;;;;;;2063674;28;20026;-70
2021/09/21 00:56:12;;;;;;;6.28;4.70;;;14.30;99.90;;;;;;2066055;28;20028;-70
2021/09/21 00:57:13;;;;;;;6.45;4.60;;;14.30;99.90;;;;;;2063748;28;20022;-70
2021/09/21 00:58:14;;;;;;;4.50;3.78;;;14.30;99.90;;;;;;2062850;28;20027;-70
2021/09/21 00:59:15;;;;;;;6.68;5.03;;;14.20;99.90;;;;;;2063836;28;20027;-70
2021/09/21 01:00:18;;;;;;;7.80;4.78;;;14.20;99.90;;;;;;2063582;28;20065;-70
2021/09/21 01:01:18;;;;;;;5.18;4.68;;;14.20;99.90;;;;;;2063644;28;20474;-70
2021/09/21 01:02:19;;;;;;;5.78;4.43;;;14.20;99.90;;;;;;2063568;28;20434;-70
2021/09/21 01:03:20;;;;;;;5.65;4.28;;;14.10;99.90;;;;;;2063240;28;20031;-70
2021/09/21 01:04:20;;;;;;;6.72;4.70;;;14.10;99.90;;;;;;2063484;28;20026;-70
2021/09/21 01:05:24;;;;;;;5.07;4.57;;;14.10;99.90;;;;;;2063327;28;20522;-70
2021/09/21 01:06:24;;;;;;;4.47;4.07;;;14.10;99.90;;;;;;2068838;28;20116;-70
2021/09/21 01:07:25;;;;;;;6.97;4.85;;;14.10;99.90;;;;;;2070315;28;20018;-70
2021/09/21 01:08:37;;;;;;;8.27;4.97;;;14.10;99.90;;;;;;2067329;28;20061;-70
2021/09/21 01:09:39;;;;;;;5.65;4.22;;;14.10;99.90;;;;;;2064748;28;20579;-70
2021/09/21 01:10:39;;;;;;;4.65;4.13;;;14.00;99.90;;;;;;2065679;28;20073;-70
2021/09/21 01:11:40;;;;;;;5.47;4.57;;;14.00;99.90;;;;;;2070944;28;20072;-70
2021/09/21 01:12:41;;;;;;;5.13;4.10;;;14.00;99.90;;;;;;2066393;28;20463;-70
2021/09/21 01:13:42;;;;;;;5.65;4.53;;;14.00;99.90;;;;;;2063122;28;20026;-70
2021/09/21 01:14:42;;;;;;;7.30;4.43;;;14.00;99.90;;;;;;2063403;28;20041;-70
2021/09/21 01:15:43;;;;;;;4.70;4.30;;;14.00;99.90;;;;;;2063530;28;20109;-70
2021/09/21 01:16:44;;;;;;;6.97;4.90;;;14.00;99.90;;;;;;2063465;28;20497;-70
2021/09/21 01:17:45;;;;;;;4.95;4.10;;;14.00;99.90;;;;;;2063549;28;20054;-70
2021/09/21 01:18:47;;;;;;;6.05;3.83;;;14.00;99.90;;;;;;2063466;28;20076;-70
2021/09/21 01:19:47;;;;;;;7.15;4.57;;;14.00;99.90;;;;;;2066405;28;20470;-70
2021/09/21 01:20:48;;;;;;;5.05;4.22;;;14.00;99.90;;;;;;2064762;28;20390;-70
2021/09/21 01:21:51;;;;;;;4.75;4.07;;;14.00;99.90;;;;;;2071851;28;20041;-70
2021/09/21 01:22:52;;;;;;;4.80;4.07;;;14.00;99.90;;;;;;2063256;28;20126;-70
2021/09/21 01:23:55;;;;;;;5.40;4.15;;;14.00;99.90;;;;;;2066800;28;20076;-70
2021/09/21 01:24:56;;;;;;;6.28;4.68;;;14.00;99.90;;;;;;2071587;28;20058;-70
2021/09/21 01:25:57;;;;;;;4.82;3.67;;;14.00;99.90;;;;;;2071741;28;20540;-70
2021/09/21 01:26:57;;;;;;;6.40;4.32;;;14.00;99.90;;;;;;2071547;28;20038;-70
2021/09/21 01:27:59;;;;;;;5.63;4.30;;;14.00;99.90;;;;;;2071546;28;20034;-70
2021/09/21 01:28:59;;;;;;;6.03;4.28;;;14.00;99.90;;;;;;2065694;28;20109;-70
2021/09/21 01:30:01;;;;;;;4.82;3.88;;;14.00;99.90;;;;;;2063614;28;20462;-70
2021/09/21 01:31:01;;;;;;;5.80;4.75;;;14.00;99.90;;;;;;2063307;28;20427;-70
2021/09/21 01:32:02;;;;;;;4.57;4.18;;;14.00;99.90;;;;;;2063625;28;20025;-70
2021/09/21 01:33:03;;;;;;;5.18;4.45;;;14.00;99.90;;;;;;2067419;28;20055;-70
2021/09/21 01:34:04;;;;;;;7.70;4.38;;;13.90;99.90;;;;;;2071713;28;20033;-70
2021/09/21 01:35:06;;;;;;;6.40;5.00;;;14.00;99.90;;;;;;2071343;28;20037;-70
2021/09/21 01:36:07;;;;;;;7.45;4.60;;;14.00;99.90;;;;;;2071520;28;20022;-70
2021/09/21 01:37:12;;;;;;;6.10;4.28;;;14.00;99.90;;;;;;2071618;28;20085;-70
2021/09/21 01:38:12;;;;;;;7.05;5.50;;;13.90;99.90;;;;;;2070947;28;20026;-70
2021/09/21 01:39:13;;;;;;;7.32;4.47;;;13.90;99.90;;;;;;2071273;28;20049;-70
2021/09/21 01:40:14;;;;;;;4.47;4.07;;;14.00;99.90;;;;;;2071374;28;20022;-70
2021/09/21 01:41:15;;;;;;;5.97;4.47;;;13.90;99.90;;;;;;2071155;28;20026;-70
2021/09/21 01:42:15;;;;;;;5.53;4.55;;;13.90;99.90;;;;;;2071566;28;20474;-70
2021/09/21 01:43:16;;;;;;;6.10;4.70;;;13.90;99.90;;;;;;2071294;28;20028;-70
2021/09/21 01:44:17;;;;;;;5.35;4.47;;;13.90;99.90;;;;;;2071710;28;20109;-70
2021/09/21 01:45:19;;;;;;;7.05;4.57;;;13.90;99.90;;;;;;2078892;28;20033;-70
2021/09/21 01:46:21;;;;;;;6.50;5.40;;;13.90;99.90;;;;;;2079018;28;20018;-70
2021/09/21 01:47:22;;;;;;;6.13;4.75;;;13.90;99.90;;;;;;2069351;28;20072;-70
2021/09/21 01:48:22;;;;;;;5.90;4.43;;;13.90;99.90;;;;;;2066542;28;20074;-70
2021/09/21 01:49:24;;;;;;;5.07;4.57;;;13.90;99.90;;;;;;2062923;28;20084;-70
2021/09/21 01:50:33;;;;;;;5.78;5.05;;;13.90;99.90;;;;;;2063380;28;20039;-70
2021/09/21 01:51:37;;;;;;;5.30;4.30;;;13.90;99.90;;;;;;2063108;28;20039;-70
2021/09/21 01:52:44;;;;;;;5.35;4.35;;;13.90;99.90;;;;;;2063352;28;20409;-70
2021/09/21 01:58:52;;;;;;;5.30;4.03;;;13.80;99.90;;;;;;2072450;28;20378;-70
2021/09/21 01:59:53;;;;;;;4.88;4.25;;;13.80;99.90;;;;;;2067480;28;20109;-70
2021/09/21 02:00:53;;;;;;;5.00;4.20;;;13.80;99.90;;;;;;2069520;28;20022;-70
2021/09/21 02:01:54;;;;;;;5.93;4.20;;;13.80;99.90;;;;;;2073111;28;20807;-70
2021/09/21 02:02:55;;;;;;;5.97;5.05;;;13.80;99.90;;;;;;2069379;28;20023;-70
2021/09/21 02:03:58;;;;;;;8.52;5.32;;;13.80;99.90;;;;;;2065146;28;20048;-70
2021/09/21 02:04:59;;;;;;;4.90;4.05;;;13.80;99.90;;;;;;2065363;28;20033;-70
2021/09/21 02:05:59;;;;;;;5.93;4.63;;;13.80;99.90;;;;;;2064805;28;20069;-70
2021/09/21 02:07:00;;;;;;;5.75;5.07;;;13.80;99.90;;;;;;2064982;28;20034;-70
2021/09/21 02:08:00;;;;;;;5.13;4.50;;;13.80;99.90;;;;;;2064608;28;20113;-70
2021/09/21 02:09:02;;;;;;;6.93;4.65;;;13.80;99.90;;;;;;2064401;28;20046;-70
2021/09/21 02:10:03;;;;;;;5.35;4.05;;;13.80;99.90;;;;;;2065513;28;20026;-70
2021/09/21 02:11:04;;;;;;;5.25;4.75;;;13.80;99.90;;;;;;2064696;28;20022;-70
2021/09/21 02:12:05;;;;;;;5.18;4.15;;;13.80;99.90;;;;;;2065090;28;20023;-70
2021/09/21 02:13:06;;;;;;;6.97;4.95;;;13.80;99.90;;;;;;2064755;28;20082;-70
2021/09/21 02:14:10;;;;;;;5.25;4.55;;;13.80;99.90;;;;;;2064774;28;20026;-70
2021/09/21 02:15:11;;;;;;;5.32;4.50;;;13.80;99.90;;;;;;2064635;28;20022;-70
2021/09/21 02:16:11;;;;;;;5.75;4.47;;;13.80;99.90;;;;;;2064892;28;20098;-70
2021/09/21 02:17:12;;;;;;;5.70;4.18;;;13.80;99.90;;;;;;2064592;28;20026;-70
2021/09/21 02:18:12;;;;;;;4.80;4.10;;;13.80;99.90;;;;;;2064394;28;20065;-70
2021/09/21 02:19:13;;;;;;;4.78;4.30;;;13.80;99.90;;;;;;2064560;28;20014;-70
2021/09/21 02:20:14;;;;;;;4.78;4.28;;;13.80;99.90;;;;;;2064919;28;20022;-70
2021/09/21 02:21:14;;;;;;;4.95;4.35;;;13.70;99.90;;;;;;2064642;28;20069;-70
2021/09/21 02:22:15;;;;;;;4.30;3.88;;;13.70;99.90;;;;;;2067019;28;20033;-70
2021/09/21 02:23:16;;;;;;;8.02;4.20;;;13.70;99.90;;;;;;2072314;28;20409;-70
2021/09/21 02:24:22;;;;;;;3.85;3.50;;;13.70;99.90;;;;;;2073108;28;20061;-70
2021/09/21 02:25:23;;;;;;;4.50;4.10;;;13.70;99.90;;;;;;2071556;28;20045;-70
2021/09/21 02:26:24;;;;;;;5.20;4.10;;;13.60;99.90;;;;;;2064248;28;20029;-70
2021/09/21 02:27:25;;;;;;;4.43;3.83;;;13.60;99.90;;;;;;2064084;28;20105;-70
2021/09/21 02:28:26;;;;;;;4.95;4.47;;;13.60;99.90;;;;;;2064291;28;20499;-70
2021/09/21 02:29:27;;;;;;;4.72;3.83;;;13.60;99.90;;;;;;2064275;28;20764;-70
2021/09/21 02:30:27;;;;;;;7.82;5.05;;;13.60;99.90;;;;;;2064727;28;20049;-71
2021/09/21 02:31:28;;;;;;;6.13;4.30;;;13.60;99.90;;;;;;2065890;28;20039;-70
2021/09/21 02:32:28;;;;;;;5.82;4.30;;;13.60;99.90;;;;;;2064721;28;20041;-70
2021/09/21 02:33:29;;;;;;;6.15;4.50;;;13.50;99.90;;;;;;2067269;28;20033;-70
2021/09/21 02:34:29;;;;;;;5.38;4.35;;;13.50;99.90;;;;;;2073132;28;20058;-70
2021/09/21 02:35:30;;;;;;;4.55;3.80;;;13.50;99.90;;;;;;2073113;28;20087;-70
2021/09/21 02:36:31;;;;;;;8.63;4.82;;;13.50;99.90;;;;;;2073062;28;20029;-70
2021/09/21 02:37:32;;;;;;;4.85;3.88;;;13.40;99.90;;;;;;2068839;28;20030;-70
2021/09/21 02:38:34;;;;;;;4.25;3.85;;;13.40;99.90;;;;;;2063193;28;20050;-70
2021/09/21 02:39:34;;;;;;;4.40;4.00;;;13.40;99.90;;;;;;2064560;28;20694;-70
2021/09/21 02:40:35;;;;;;;5.72;4.10;;;13.40;99.90;;;;;;2064623;28;20102;-70
2021/09/21 02:41:36;;;;;;;6.28;4.53;;;13.40;99.90;;;;;;2065009;28;20045;-70
2021/09/21 02:42:37;;;;;;;5.07;4.68;;;13.30;99.90;;;;;;2064786;28;20092;-70
2021/09/21 02:43:38;;;;;;;4.43;4.00;;;13.30;99.90;;;;;;2070228;28;20092;-70
2021/09/21 02:44:39;;;;;;;5.78;4.20;;;13.30;99.90;;;;;;2071791;28;20041;-70
2021/09/21 02:45:40;;;;;;;4.43;4.03;;;13.20;99.90;;;;;;2064494;28;20487;-70
2021/09/21 02:46:40;;;;;;;4.25;3.83;;;13.20;99.90;;;;;;2064835;28;20459;-70
2021/09/21 02:47:41;;;;;;;4.18;3.78;;;13.20;99.90;;;;;;2064262;28;20079;-70
2021/09/21 02:48:41;;;;;;;5.72;4.18;;;13.20;99.90;;;;;;2063673;28;20078;-70
2021/09/21 02:49:42;;;;;;;7.43;4.50;;;13.10;99.90;;;;;;2064943;28;20037;-70
2021/09/21 02:50:43;;;;;;;4.38;3.95;;;13.10;99.90;;;;;;2064515;28;20022;-70
2021/09/21 02:51:44;;;;;;;4.57;4.15;;;13.10;99.90;;;;;;2070628;28;20053;-70
2021/09/21 02:52:45;;;;;;;4.43;4.00;;;13.10;99.90;;;;;;2072111;28;20022;-70
2021/09/21 02:53:45;;;;;;;5.07;4.22;;;13.10;99.90;;;;;;2064692;28;20520;-70
2021/09/21 02:54:46;;;;;;;4.90;4.40;;;13.00;99.90;;;;;;2064458;28;20608;-70
2021/09/21 02:55:46;;;;;;;4.90;4.50;;;13.00;99.90;;;;;;2069691;28;20026;-70
2021/09/21 02:56:47;;;;;;;5.22;4.30;;;13.00;99.90;;;;;;2065127;28;20026;-70
2021/09/21 02:57:48;;;;;;;5.18;4.35;;;12.90;99.90;;;;;;2070429;28;20091;-70
2021/09/21 02:58:49;;;;;;;5.15;4.53;;;12.90;99.90;;;;;;2071342;28;20034;-70
2021/09/21 02:59:49;;;;;;;4.93;4.22;;;12.90;99.90;;;;;;2069620;28;20034;-70
2021/09/21 03:00:54;;;;;;;4.78;4.25;;;12.80;99.90;;;;;;2072251;28;20113;-70
2021/09/21 03:01:54;;;;;;;4.30;3.90;;;12.80;99.90;;;;;;2066422;28;20033;-70
2021/09/21 03:02:59;;;;;;;5.47;4.75;;;12.80;99.90;;;;;;2068811;28;20109;-70
2021/09/21 03:04:04;;;;;;;4.55;4.15;;;12.80;99.90;;;;;;2064740;28;20102;-70
2021/09/21 03:05:09;;;;;;;5.95;4.30;;;12.70;99.90;;;;;;2064133;28;20061;-70
2021/09/21 03:06:19;;;;;;;5.05;4.28;;;12.70;99.90;;;;;;2070446;28;20026;-70
2021/09/21 03:07:29;;;;;;;5.43;4.68;;;12.70;99.90;;;;;;2071907;28;20026;-70
2021/09/21 03:08:32;;;;;;;5.40;4.37;;;12.60;99.90;;;;;;2063793;28;20030;-70
2021/09/21 03:11:06;;;;;;;5.88;4.22;;;12.60;99.90;;;;;;2064602;28;20038;-70
2021/09/21 03:17:09;;;;;;;5.50;4.47;;;12.40;99.90;;;;;;2071321;28;20033;-70
2021/09/21 03:18:09;;;;;;;5.00;4.22;;;12.40;99.90;;;;;;2072269;28;20332;-70
2021/09/21 03:19:10;;;;;;;5.65;4.45;;;12.30;99.90;;;;;;2070623;28;20132;-70
2021/09/21 03:20:11;;;;;;;6.03;4.85;;;12.30;99.90;;;;;;2072186;28;20026;-70
2021/09/21 03:21:11;;;;;;;5.32;4.47;;;12.30;99.90;;;;;;2065141;28;20027;-70
2021/09/21 03:22:12;;;;;;;7.30;4.30;;;12.30;99.90;;;;;;2064928;28;20045;-70
2021/09/21 03:23:13;;;;;;;6.78;4.35;;;12.30;99.90;;;;;;2064117;28;20471;-70
2021/09/21 03:24:13;;;;;;;5.22;4.53;;;12.20;99.90;;;;;;2064789;28;20041;-71
2021/09/21 03:25:14;;;;;;;6.45;4.32;;;12.30;99.90;;;;;;2063731;28;20019;-70
2021/09/21 03:26:14;;;;;;;5.38;4.88;;;12.20;99.90;;;;;;2064412;28;20061;-70
2021/09/21 03:27:16;;;;;;;6.15;4.90;;;12.20;99.90;;;;;;2064190;28;20106;-70
2021/09/21 03:28:16;;;;;;;6.15;5.30;;;12.20;99.90;;;;;;2063874;28;20022;-70
2021/09/21 03:29:17;;;;;;;5.90;4.75;;;12.20;99.90;;;;;;2064234;28;20038;-70
2021/09/21 03:30:17;;;;;;;6.57;5.10;;;12.20;99.90;;;;;;2064260;28;20191;-70
2021/09/21 03:31:18;;;;;;;4.68;4.25;;;12.10;99.90;;;;;;2064164;28;20046;-70
2021/09/21 03:32:18;;;;;;;5.75;5.13;;;12.10;99.90;;;;;;2064277;28;20025;-70
2021/09/21 03:33:19;;;;;;;6.05;5.25;;;12.10;99.90;;;;;;2069239;28;20029;-70
2021/09/21 03:34:19;;;;;;;5.60;4.38;;;12.10;99.90;;;;;;2072244;28;20500;-70
2021/09/21 03:35:20;;;;;;;7.70;4.78;;;12.10;99.90;;;;;;2072687;28;20025;-70
2021/09/21 03:36:20;;;;;;;5.30;4.80;;;12.00;99.90;;;;;;2072093;28;20053;-70
2021/09/21 03:37:21;;;;;;;5.38;4.65;;;12.00;99.90;;;;;;2072511;28;20066;-70
2021/09/21 03:38:22;;;;;;;4.60;4.20;;;12.00;99.90;;;;;;2071648;28;20020;-70
2021/09/21 03:39:22;;;;;;;5.47;4.20;;;12.00;99.90;;;;;;2072257;28;20058;-70
2021/09/21 03:40:23;;;;;;;7.35;5.03;;;12.00;99.90;;;;;;2072174;28;20056;-70
2021/09/21 03:41:24;;;;;;;4.90;4.43;;;12.00;99.90;;;;;;2072518;28;20045;-71
2021/09/21 03:42:24;;;;;;;5.75;4.70;;;12.00;99.90;;;;;;2072223;28;20053;-70
2021/09/21 03:43:25;;;;;;;5.63;4.90;;;11.90;99.90;;;;;;2079657;28;20022;-70
2021/09/21 03:44:26;;;;;;;6.03;4.22;;;11.90;99.90;;;;;;2079677;28;20081;-70
2021/09/21 03:45:27;;;;;;;7.00;5.20;;;11.90;99.90;;;;;;2065132;28;20061;-71
2021/09/21 03:46:28;;;;;;;5.60;4.97;;;11.90;99.90;;;;;;2064105;28;20027;-70
2021/09/21 03:47:28;;;;;;;5.07;4.28;;;11.90;99.90;;;;;;2071823;28;20383;-70
2021/09/21 03:48:29;;;;;;;7.47;4.70;;;11.90;99.90;;;;;;2066273;28;20037;-70
2021/09/21 03:49:30;;;;;;;4.75;4.05;;;11.80;99.90;;;;;;2063975;28;20031;-70
2021/09/21 03:50:30;;;;;;;5.57;4.97;;;11.80;99.90;;;;;;2064323;28;20030;-70
2021/09/21 03:51:31;;;;;;;4.95;4.47;;;11.80;99.90;;;;;;2063376;28;20031;-70
2021/09/21 03:52:31;;;;;;;6.47;4.95;;;11.80;99.90;;;;;;2063313;28;20033;-70
2021/09/21 03:53:32;;;;;;;4.72;4.32;;;11.80;99.90;;;;;;2063694;28;20053;-70
2021/09/21 03:54:32;;;;;;;5.20;4.68;;;11.80;99.90;;;;;;2064182;28;20037;-70
2021/09/21 03:55:33;;;;;;;5.43;4.93;;;11.70;99.90;;;;;;2067230;28;20026;-71
2021/09/21 03:56:34;;;;;;;5.20;4.60;;;11.70;99.90;;;;;;2071937;28;20108;-70
2021/09/21 03:57:34;;;;;;;5.30;4.80;;;11.70;99.90;;;;;;2071898;28;20026;-70
2021/09/21 03:58:35;;;;;;;5.65;4.82;;;11.70;99.90;;;;;;2063498;28;20041;-70
2021/09/21 03:59:35;;;;;;;6.18;5.45;;;11.70;99.90;;;;;;2064055;28;20113;-70
2021/09/21 04:00:36;;;;;;;6.68;4.80;;;11.70;99.90;;;;;;2065457;28;20045;-70
2021/09/21 04:01:36;;;;;;;5.57;4.60;;;11.70;99.90;;;;;;2072107;28;20485;-70
2021/09/21 04:02:37;;;;;;;5.45;4.82;;;11.70;99.90;;;;;;2069646;28;20102;-70
2021/09/21 04:03:38;;;;;;;5.05;4.60;;;11.70;99.90;;;;;;2064174;28;20035;-70
2021/09/21 04:04:39;;;;;;;5.35;4.30;;;11.60;99.90;;;;;;2063859;28;20470;-70
2021/09/21 04:05:41;;;;;;;6.65;5.28;;;11.70;99.90;;;;;;2064110;28;20038;-70
2021/09/21 04:06:42;;;;;;;5.82;5.32;;;11.60;99.90;;;;;;2064206;28;20049;-70
2021/09/21 04:07:42;;;;;;;9.07;5.22;;;11.60;99.90;;;;;;2063955;28;20023;-70
2021/09/21 04:08:43;;;;;;;5.57;4.75;;;11.60;99.90;;;;;;2063425;28;20110;-70
2021/09/21 04:09:43;;;;;;;5.70;5.00;;;11.60;99.90;;;;;;2064062;28;20077;-70
2021/09/21 04:10:44;;;;;;;5.25;4.45;;;11.60;99.90;;;;;;2063952;28;20378;-70
2021/09/21 04:11:45;;;;;;;6.65;5.40;;;11.60;99.90;;;;;;2063913;28;20130;-70
2021/09/21 04:12:45;;;;;;;5.28;4.75;;;11.50;99.90;;;;;;2063923;28;20464;-70
2021/09/21 04:13:46;;;;;;;4.90;4.20;;;11.50;99.90;;;;;;2063815;28;20375;-70
2021/09/21 04:14:46;;;;;;;7.50;5.25;;;11.50;99.90;;;;;;2067660;28;20026;-70
2021/09/21 04:15:47;;;;;;;6.10;5.43;;;11.50;99.90;;;;;;2071744;28;20069;-70
2021/09/21 04:16:48;;;;;;;5.82;4.57;;;11.50;99.90;;;;;;2072011;28;20034;-70
2021/09/21 04:17:48;;;;;;;5.10;4.60;;;11.50;99.90;;;;;;2064348;28;20030;-70
2021/09/21 04:18:49;;;;;;;5.47;4.85;;;11.50;99.90;;;;;;2063048;28;20109;-70
2021/09/21 04:19:49;;;;;;;7.10;5.45;;;11.40;99.90;;;;;;2063515;28;20816;-70
2021/09/21 04:20:50;;;;;;;5.95;4.50;;;11.40;99.90;;;;;;2063884;28;20057;-70
2021/09/21 04:21:51;;;;;;;5.47;4.85;;;11.40;99.90;;;;;;2063687;28;20057;-70
2021/09/21 04:22:52;;;;;;;5.32;4.78;;;11.40;99.90;;;;;;2063541;28;20034;-70
2021/09/21 04:23:53;;;;;;;5.18;4.68;;;11.40;99.90;;;;;;2063788;28;20117;-70
2021/09/21 04:24:55;;;;;;;5.40;4.90;;;11.40;99.90;;;;;;2063941;28;20037;-70
2021/09/21 04:25:55;;;;;;;5.32;4.85;;;11.40;99.90;;;;;;2063393;28;20501;-70
2021/09/21 04:26:56;;;;;;;6.40;5.05;;;11.30;99.90;;;;;;2064218;28;20505;-71
2021/09/21 04:27:58;;;;;;;6.57;5.10;;;11.30;99.90;;;;;;2063699;28;20040;-70
2021/09/21 04:28:58;;;;;;;7.90;5.20;;;11.30;99.90;;;;;;2069052;28;20030;-70
2021/09/21 04:30:01;;;;;;;5.95;4.85;;;11.30;99.90;;;;;;2070737;28;20087;-70
2021/09/21 04:31:11;;;;;;;5.57;4.70;;;11.30;99.90;;;;;;2063823;28;20109;-70
2021/09/21 04:32:15;;;;;;;5.75;4.53;;;11.30;99.90;;;;;;2063780;28;20092;-70
2021/09/21 04:33:15;;;;;;;5.20;4.70;;;11.30;99.90;;;;;;2063897;28;20037;-70
2021/09/21 04:34:16;;;;;;;6.03;5.43;;;11.20;99.90;;;;;;2071677;28;20037;-70
2021/09/21 04:35:17;;;;;;;5.63;5.07;;;11.20;99.90;;;;;;2071815;28;20045;-70
2021/09/21 04:36:19;;;;;;;5.20;4.70;;;11.20;99.90;;;;;;2071890;28;20029;-70
2021/09/21 04:37:19;;;;;;;6.82;4.85;;;11.20;99.90;;;;;;2071525;28;20458;-70
2021/09/21 04:38:20;;;;;;;4.95;4.50;;;11.20;99.90;;;;;;2070827;28;20424;-70
2021/09/21 04:39:21;;;;;;;6.13;4.57;;;11.20;99.90;;;;;;2071992;28;20022;-70
2021/09/21 04:40:21;;;;;;;7.78;4.90;;;11.10;99.90;;;;;;2071754;28;20109;-70
2021/09/21 04:41:22;;;;;;;6.05;4.97;;;11.10;99.90;;;;;;2079251;28;20018;-70
2021/09/21 04:42:24;;;;;;;6.20;5.20;;;11.10;99.90;;;;;;2079162;28;20021;-70
2021/09/21 04:43:26;;;;;;;4.72;4.32;;;11.10;99.90;;;;;;2064103;28;20075;-70
2021/09/21 04:44:26;;;;;;;5.55;5.05;;;11.10;99.90;;;;;;2063586;28;20030;-71
2021/09/21 04:45:27;;;;;;;5.07;4.60;;;11.10;99.90;;;;;;2063712;28;20467;-70
2021/09/21 04:46:27;;;;;;;9.70;5.15;;;11.10;99.90;;;;;;2063039;28;20034;-70
2021/09/21 04:47:28;;;;;;;6.47;5.25;;;11.10;99.90;;;;;;2063891;28;20114;-70
2021/09/21 04:48:28;;;;;;;6.22;5.63;;;11.00;99.90;;;;;;2063321;28;20054;-70
2021/09/21 04:49:29;;;;;;;7.10;5.25;;;11.00;99.90;;;;;;2070841;28;20037;-70
2021/09/21 04:50:30;;;;;;;6.22;4.72;;;11.00;99.90;;;;;;2063702;28;20037;-71
2021/09/21 04:51:31;;;;;;;6.47;5.18;;;11.00;99.90;;;;;;2065369;28;20030;-70
2021/09/21 04:52:32;;;;;;;5.72;5.13;;;11.00;99.90;;;;;;2063581;28;20109;-70
2021/09/21 04:53:32;;;;;;;5.53;5.03;;;11.00;99.90;;;;;;2063480;28;20037;-70
2021/09/21 04:54:33;;;;;;;5.40;4.90;;;10.90;99.90;;;;;;2065686;28;20080;-70
2021/09/21 04:55:33;;;;;;;5.38;4.88;;;10.90;99.90;;;;;;2071506;28;20068;-70
2021/09/21 04:56:34;;;;;;;9.90;5.60;;;10.90;99.90;;;;;;2067831;28;20057;-70
2021/09/21 04:57:35;;;;;;;6.22;5.22;;;10.90;99.90;;;;;;2063336;28;20395;-70
2021/09/21 04:58:35;;;;;;;6.63;5.85;;;10.90;99.90;;;;;;2063232;28;20034;-70
2021/09/21 04:59:36;;;;;;;5.32;4.82;;;10.90;99.90;;;;;;2062551;28;20040;-71
2021/09/21 05:00:36;;;;;;;5.43;4.93;;;10.90;99.90;;;;;;2063013;28;20054;-70
2021/09/21 05:01:37;;;;;;;6.20;5.18;;;10.90;99.90;;;;;;2063378;28;20027;-70
2021/09/21 05:02:38;;;;;;;6.68;5.38;;;10.80;99.90;;;;;;2063642;28;20038;-70
2021/09/21 05:03:38;;;;;;;5.38;4.30;;;10.80;99.90;;;;;;2063337;28;20037;-70
2021/09/21 05:04:39;;;;;;;6.40;5.65;;;10.80;99.90;;;;;;2063450;28;20471;-70
2021/09/21 05:05:39;;;;;;;6.65;5.63;;;10.80;99.90;;;;;;2063558;28;20038;-70
2021/09/21 05:06:40;;;;;;;8.18;5.63;;;10.80;99.90;;;;;;2062646;28;20022;-70
2021/09/21 05:07:41;;;;;;;9.52;5.03;;;10.80;99.90;;;;;;2062600;28;20040;-70
2021/09/21 05:08:43;;;;;;;6.78;5.22;;;10.80;99.90;;;;;;2062180;28;20041;-70
2021/09/21 05:09:44;;;;;;;5.90;5.30;;;10.80;99.90;;;;;;2069213;28;20034;-70
2021/09/21 05:10:44;;;;;;;7.07;6.07;;;10.80;99.90;;;;;;2070278;28;20061;-70
2021/09/21 05:11:45;;;;;;;6.60;5.10;;;10.80;99.90;;;;;;2071353;28;20033;-70
2021/09/21 05:12:45;;;;;;;5.70;5.03;;;10.70;99.90;;;;;;2066631;28;20026;-70
2021/09/21 05:13:46;;;;;;;5.97;5.28;;;10.70;99.90;;;;;;2063423;28;20105;-70
2021/09/21 05:14:47;;;;;;;5.35;4.80;;;10.70;99.90;;;;;;2071432;28;20053;-70
2021/09/21 05:15:48;;;;;;;6.90;5.53;;;10.70;99.90;;;;;;2068676;28;20696;-70
2021/09/21 05:16:49;;;;;;;5.40;4.78;;;10.70;99.90;;;;;;2071491;28;20104;-70
2021/09/21 05:17:50;;;;;;;5.90;5.30;;;10.70;99.90;;;;;;2064596;28;20019;-70
2021/09/21 05:18:50;;;;;;;7.22;5.75;;;10.70;99.90;;;;;;2062437;28;20030;-70
2021/09/21 05:19:51;;;;;;;5.57;5.07;;;10.70;99.90;;;;;;2063446;28;20029;-71
2021/09/21 05:20:51;;;;;;;5.35;4.75;;;10.70;99.90;;;;;;2063533;28;20038;-70
2021/09/21 05:21:52;;;;;;;5.90;5.30;;;10.70;99.90;;;;;;2063576;28;20479;-70
2021/09/21 05:22:53;;;;;;;5.13;4.72;;;10.60;99.90;;;;;;2063343;28;20037;-70
2021/09/21 05:23:54;;;;;;;5.82;5.25;;;10.60;99.90;;;;;;2065149;28;20127;-70
2021/09/21 05:24:54;;;;;;;6.28;5.65;;;10.60;99.90;;;;;;2071181;28;20044;-70
2021/09/21 05:25:55;;;;;;;7.13;6.47;;;10.60;99.90;;;;;;2069398;28;20026;-70
2021/09/21 05:26:55;;;;;;;6.50;5.90;;;10.60;99.90;;;;;;2070373;28;20510;-71
2021/09/21 05:27:56;;;;;;;6.22;5.60;;;10.60;99.90;;;;;;2063551;28;20026;-70
2021/09/21 05:28:57;;;;;;;6.72;6.00;;;10.60;99.90;;;;;;2062596;28;20037;-70
2021/09/21 05:29:57;;;;;;;6.80;6.20;;;10.60;99.90;;;;;;2063301;28;20030;-70
2021/09/21 05:30:58;;;;;;;6.63;5.82;;;10.60;99.90;;;;;;2063031;28;20466;-70